Time;durP1;ratioP1;P1;durP2;ratioP2;P2;SDS_P1;SDS_P2;PMS_P1;PMS_P2;Temp;Humidity;BMP_temperature;BMP_pressure;BME280_temperature;BME280_humidity;BME280_pressure;Samples;Min_cycle;Max_cycle;Signal;HPM_P1;HPM_P2
2021/04/13 00:01:33;;;;;;;26.50;10.80;;;;;;;-0.97;78.48;103043.03;5097718;28;20116;-64
2021/04/13 00:04:15;;;;;;;26.90;10.82;;;;;;;-1.02;78.44;103041.72;5097991;28;20039;-64
2021/04/13 00:06:51;;;;;;;26.85;10.70;;;;;;;-1.03;78.90;103044.16;5097929;28;20032;-63
2021/04/13 00:09:26;;;;;;;26.80;10.65;;;;;;;-1.03;78.62;103044.16;5098636;28;20016;-64
2021/04/13 00:12:00;;;;;;;25.67;10.73;;;;;;;-1.02;78.48;103039.13;5098694;28;20024;-63
2021/04/13 00:14:29;;;;;;;27.27;11.20;;;;;;;-1.03;79.19;103041.56;5098476;28;20463;-63
2021/04/13 00:16:58;;;;;;;26.73;11.20;;;;;;;-1.10;79.81;103035.84;5099080;28;20479;-63
2021/04/13 00:19:30;;;;;;;26.90;11.00;;;;;;;-1.15;79.98;103042.34;5098413;28;20024;-63
2021/04/13 00:21:56;;;;;;;29.02;11.70;;;;;;;-1.20;80.62;103041.03;5095842;28;20459;-65
2021/04/13 00:24:24;;;;;;;30.00;11.35;;;;;;;-1.26;80.38;103040.50;5101573;28;20094;-64
2021/04/13 00:26:52;;;;;;;26.08;10.35;;;;;;;-1.30;80.65;103035.81;5099024;28;20019;-64
2021/04/13 00:29:22;;;;;;;28.00;11.55;;;;;;;-1.31;81.36;103046.97;5103611;28;20026;-63
2021/04/13 00:31:49;;;;;;;29.63;12.00;;;;;;;-1.35;81.97;103042.31;5101899;27;20027;-64
2021/04/13 00:34:17;;;;;;;27.67;10.90;;;;;;;-1.37;82.29;103042.13;5100493;28;20024;-63
2021/04/13 00:36:43;;;;;;;27.50;11.35;;;;;;;-1.37;82.49;103039.53;5103296;28;20028;-65
2021/04/13 00:39:23;;;;;;;28.13;11.48;;;;;;;-1.42;83.03;103040.84;5101000;28;20105;-64
2021/04/13 00:41:59;;;;;;;30.58;11.73;;;;;;;-1.48;83.78;103051.59;5102234;28;20043;-62
2021/04/13 00:44:26;;;;;;;30.48;11.73;;;;;;;-1.49;84.46;103039.38;5101319;28;20069;-65
2021/04/13 00:47:14;;;;;;;29.25;11.75;;;;;;;-1.49;84.03;103041.06;5099007;28;20562;-63
2021/04/13 00:49:48;;;;;;;27.48;11.45;;;;;;;-1.52;84.15;103052.06;5102686;28;20467;-65
2021/04/13 00:52:18;;;;;;;31.17;11.88;;;;;;;-1.56;84.81;103046.50;5105063;28;20027;-64
2021/04/13 00:54:55;;;;;;;29.73;11.57;;;;;;;-1.56;84.31;103047.38;5098158;28;20020;-63
2021/04/13 00:57:25;;;;;;;27.23;11.52;;;;;;;-1.61;84.82;103056.47;5099264;28;20513;-63
2021/04/13 00:59:51;;;;;;;28.88;11.50;;;;;;;-1.65;86.01;103054.38;5099988;28;20387;-63
2021/04/13 01:02:25;;;;;;;31.10;12.55;;;;;;;-1.66;86.04;103055.13;5103288;28;20034;-63
2021/04/13 01:04:59;;;;;;;30.55;12.57;;;;;;;-1.69;85.66;103049.66;5099963;28;20107;-63
2021/04/13 01:07:49;;;;;;;32.10;12.48;;;;;;;-1.68;85.52;103051.50;5099356;28;20085;-63
2021/04/13 01:10:30;;;;;;;30.02;12.55;;;;;;;-1.60;85.50;103050.50;5096505;28;20352;-65
2021/04/13 01:13:08;;;;;;;30.38;12.57;;;;;;;-1.54;85.18;103053.63;5102794;28;20023;-63
2021/04/13 01:15:34;;;;;;;29.58;11.40;;;;;;;-1.48;84.49;103055.88;5096410;28;20436;-63
2021/04/13 01:17:59;;;;;;;30.25;11.50;;;;;;;-1.44;83.85;103053.69;5098870;28;20027;-63
2021/04/13 01:20:34;;;;;;;29.17;11.65;;;;;;;-1.44;84.69;103056.28;5099465;28;20016;-64
2021/04/13 01:23:08;;;;;;;29.70;11.75;;;;;;;-1.41;85.08;103051.34;5096703;28;20110;-63
2021/04/13 01:25:42;;;;;;;31.23;12.38;;;;;;;-1.34;84.76;103057.06;5101215;28;20073;-63
2021/04/13 01:28:17;;;;;;;29.10;11.90;;;;;;;-1.29;85.15;103054.09;5103892;28;20028;-64
2021/04/13 01:30:49;;;;;;;31.58;12.32;;;;;;;-1.28;85.73;103045.56;5104779;28;20039;-65
2021/04/13 01:33:16;;;;;;;28.55;12.05;;;;;;;-1.24;85.59;103044.13;5099812;28;20065;-65
2021/04/13 01:35:51;;;;;;;32.35;12.10;;;;;;;-1.24;85.47;103044.13;5103165;28;20063;-65
2021/04/13 01:38:27;;;;;;;30.20;11.95;;;;;;;-1.26;85.16;103048.28;5099418;28;20471;-65
2021/04/13 01:41:22;;;;;;;28.67;11.93;;;;;;;-1.32;84.37;103050.34;5104260;28;20030;-65
2021/04/13 01:43:48;;;;;;;31.02;12.55;;;;;;;-1.42;85.58;103046.94;5099893;28;20024;-65
2021/04/13 01:46:14;;;;;;;30.17;12.00;;;;;;;-1.47;84.60;103048.22;5100099;28;20486;-65
2021/04/13 01:48:41;;;;;;;30.17;12.93;;;;;;;-1.49;86.02;103052.34;5100054;28;20023;-65
2021/04/13 01:51:08;;;;;;;32.38;13.02;;;;;;;-1.49;86.65;103054.94;5099877;28;20028;-64
2021/04/13 01:53:37;;;;;;;32.83;13.05;;;;;;;-1.48;86.73;103054.19;5100854;28;20023;-65
2021/04/13 01:56:07;;;;;;;32.05;12.88;;;;;;;-1.51;86.45;103051.31;5100289;28;20016;-65
2021/04/13 01:58:56;;;;;;;33.38;13.52;;;;;;;-1.53;86.81;103058.06;5101368;28;20051;-65
2021/04/13 02:01:32;;;;;;;30.98;12.50;;;;;;;-1.56;87.77;103068.13;5097222;28;20115;-65
2021/04/13 02:04:14;;;;;;;32.70;13.18;;;;;;;-1.60;87.21;103066.97;5098522;28;20028;-65
2021/04/13 02:06:47;;;;;;;32.22;13.23;;;;;;;-1.61;88.44;103069.44;5097209;28;20030;-65
2021/04/13 02:09:35;;;;;;;36.25;13.30;;;;;;;-1.63;89.28;103070.97;5100830;28;20020;-65
2021/04/13 02:12:07;;;;;;;32.53;13.52;;;;;;;-1.66;90.13;103073.28;5101427;28;20112;-65
2021/04/13 02:14:40;;;;;;;34.50;13.95;;;;;;;-1.68;91.89;103077.44;5099690;28;20038;-65
2021/04/13 02:17:13;;;;;;;33.15;14.20;;;;;;;-1.70;91.41;103069.53;5100676;28;20496;-65
2021/04/13 02:19:45;;;;;;;32.42;13.50;;;;;;;-1.74;90.87;103071.72;5101201;28;20520;-64
2021/04/13 02:22:15;;;;;;;31.88;14.10;;;;;;;-1.80;92.84;103075.56;5098207;28;20077;-64
2021/04/13 02:24:41;;;;;;;33.45;14.13;;;;;;;-1.85;91.93;103071.66;5103615;28;20035;-65
2021/04/13 02:27:20;;;;;;;35.78;14.63;;;;;;;-1.89;94.21;103074.72;5100088;28;20031;-65
2021/04/13 02:29:51;;;;;;;34.13;14.93;;;;;;;-1.94;93.70;103082.09;5097572;28;20133;-65
2021/04/13 02:32:22;;;;;;;34.08;14.65;;;;;;;-1.98;94.71;103079.06;5102857;28;20060;-65
2021/04/13 02:34:57;;;;;;;32.63;13.75;;;;;;;-1.99;93.16;103072.97;5105501;28;20020;-66
2021/04/13 02:37:51;;;;;;;33.88;14.32;;;;;;;-2.02;92.85;103072.72;5099863;28;20047;-65
2021/04/13 02:40:22;;;;;;;32.42;13.50;;;;;;;-2.01;92.68;103078.78;5100436;28;20379;-65
2021/04/13 02:42:53;;;;;;;34.97;14.20;;;;;;;-2.04;92.51;103071.66;5101498;28;20032;-65
2021/04/13 02:45:47;;;;;;;35.28;13.98;;;;;;;-2.06;92.56;103078.38;5107106;28;20027;-65
2021/04/13 02:48:22;;;;;;;32.80;13.13;;;;;;;-2.08;91.23;103077.34;5099357;28;20051;-65
2021/04/13 02:50:49;;;;;;;32.88;12.85;;;;;;;-2.08;90.48;103079.00;5098074;28;20024;-65
2021/04/13 02:53:20;;;;;;;31.92;13.50;;;;;;;-2.12;90.85;103073.53;5102762;28;20470;-65
2021/04/13 02:55:51;;;;;;;35.58;14.07;;;;;;;-2.16;91.62;103076.63;5104084;28;20123;-64
2021/04/13 02:58:19;;;;;;;33.97;14.45;;;;;;;-2.18;92.39;103072.09;5098350;28;20027;-65
2021/04/13 03:00:48;;;;;;;36.38;14.73;;;;;;;-2.19;93.01;103085.81;5106004;28;20061;-64
2021/04/13 03:03:24;;;;;;;35.65;15.35;;;;;;;-2.22;93.07;103078.66;5102764;28;20475;-64
2021/04/13 03:05:53;;;;;;;35.42;14.65;;;;;;;-2.25;93.27;103073.19;5094212;28;20409;-65
2021/04/13 03:08:20;;;;;;;35.17;15.05;;;;;;;-2.29;93.12;103072.03;5101638;28;20500;-64
2021/04/13 03:10:54;;;;;;;34.72;15.02;;;;;;;-2.33;93.49;103068.97;5101967;28;20344;-65
2021/04/13 03:13:24;;;;;;;37.83;14.90;;;;;;;-2.31;92.93;103070.03;5097199;28;20044;-65
2021/04/13 03:15:57;;;;;;;37.90;15.38;;;;;;;-2.35;94.79;103068.84;5102796;28;20024;-65
2021/04/13 03:18:39;;;;;;;35.47;14.38;;;;;;;-2.39;94.86;103073.59;5099328;28;20090;-65
2021/04/13 03:21:29;;;;;;;36.85;15.73;;;;;;;-2.40;95.54;103074.34;5098782;28;20069;-65
2021/04/13 03:23:58;;;;;;;35.60;14.70;;;;;;;-2.41;95.16;103080.34;5030112;28;20034;-65
2021/04/13 03:26:45;;;;;;;36.60;16.15;;;;;;;-2.45;96.72;103081.72;5031155;28;20037;-63
2021/04/13 03:29:22;;;;;;;39.00;16.02;;;;;;;-2.46;98.57;103080.81;5029335;28;20511;-63
2021/04/13 03:31:51;;;;;;;37.67;16.20;;;;;;;-2.45;96.49;103084.31;5029795;28;20493;-64
2021/04/13 03:34:18;;;;;;;36.20;16.63;;;;;;;-2.46;96.71;103086.00;5030161;28;20497;-64
2021/04/13 03:36:46;;;;;;;37.72;17.10;;;;;;;-2.50;98.01;103083.88;5031096;28;20051;-64
2021/04/13 03:39:26;;;;;;;38.22;16.65;;;;;;;-2.55;98.51;103082.56;5032437;28;20122;-64
2021/04/13 03:41:54;;;;;;;37.67;17.15;;;;;;;-2.60;99.08;103083.78;5028775;28;20076;-63
2021/04/13 03:44:19;;;;;;;39.95;17.65;;;;;;;-2.58;98.47;103083.94;5030188;28;20040;-64
2021/04/13 03:46:46;;;;;;;36.83;16.60;;;;;;;-2.59;98.48;103077.84;5029583;28;20026;-64
2021/04/13 03:49:22;;;;;;;39.67;16.20;;;;;;;-2.58;99.67;103081.34;5031113;28;20032;-64
2021/04/13 03:51:53;;;;;;;37.10;16.60;;;;;;;-2.61;99.08;103079.38;5028164;28;20507;-64
2021/04/13 03:54:28;;;;;;;37.88;17.35;;;;;;;-2.62;99.89;103087.94;5030136;28;20033;-65
2021/04/13 03:56:54;;;;;;;37.63;17.73;;;;;;;-2.59;100.00;103089.88;5030499;28;20091;-64
2021/04/13 03:59:25;;;;;;;37.55;17.35;;;;;;;-2.57;100.00;103086.66;5030370;28;20128;-65
2021/04/13 04:01:51;;;;;;;36.05;16.95;;;;;;;-2.56;100.00;103083.31;5089537;28;20494;-63
2021/04/13 04:04:22;;;;;;;35.75;16.48;;;;;;;-2.56;100.00;103087.56;5100539;28;20398;-65
2021/04/13 04:07:00;;;;;;;37.58;17.20;;;;;;;-2.58;100.00;103083.94;5094992;28;20032;-65
2021/04/13 04:09:37;;;;;;;35.33;16.23;;;;;;;-2.62;100.00;103087.94;5095156;28;20420;-64
2021/04/13 04:12:20;;;;;;;36.55;16.63;;;;;;;-2.63;100.00;103096.47;5099327;28;20055;-65
2021/04/13 04:14:56;;;;;;;37.88;16.50;;;;;;;-2.64;100.00;103092.97;5096589;28;20028;-65
2021/04/13 04:17:22;;;;;;;37.17;17.15;;;;;;;-2.62;100.00;103098.28;5097264;28;20024;-65
2021/04/13 04:19:59;;;;;;;36.85;17.20;;;;;;;-2.62;100.00;103098.28;5095323;28;20031;-64
2021/04/13 04:22:25;;;;;;;40.03;18.52;;;;;;;-2.57;100.00;103102.22;5099310;28;20058;-65
2021/04/13 04:24:52;;;;;;;41.00;19.48;;;;;;;-2.52;100.00;103098.38;5096518;28;20532;-65
2021/04/13 04:27:20;;;;;;;38.95;19.05;;;;;;;-2.49;100.00;103095.13;5101211;28;20059;-64
2021/04/13 04:30:07;;;;;;;38.35;18.45;;;;;;;-2.51;100.00;103099.28;5099099;28;20035;-65
2021/04/13 04:32:33;;;;;;;40.92;19.35;;;;;;;-2.52;100.00;103106.16;5097017;28;20032;-64
2021/04/13 04:35:04;;;;;;;41.65;19.75;;;;;;;-2.50;100.00;103102.00;5100490;28;20076;-65
2021/04/13 04:37:34;;;;;;;39.90;18.57;;;;;;;-2.49;100.00;103105.50;5098238;28;20510;-65
2021/04/13 04:40:19;;;;;;;39.38;18.45;;;;;;;-2.52;100.00;103115.59;5101453;28;20294;-65
2021/04/13 04:42:55;;;;;;;38.25;19.63;;;;;;;-2.55;100.00;103107.53;5099464;28;20037;-64
2021/04/13 04:45:35;;;;;;;38.60;19.23;;;;;;;-2.54;100.00;103115.44;5096190;28;20047;-64
2021/04/13 04:48:19;;;;;;;38.95;18.30;;;;;;;-2.55;100.00;103116.22;5103671;28;20108;-64
2021/04/13 04:50:46;;;;;;;38.75;18.50;;;;;;;-2.53;100.00;103114.69;5099750;28;20028;-63
2021/04/13 04:53:13;;;;;;;38.10;18.70;;;;;;;-2.51;100.00;103117.41;5103217;28;20678;-64
2021/04/13 04:55:38;;;;;;;38.13;18.30;;;;;;;-2.52;100.00;103123.34;5104788;28;20493;-63
2021/04/13 04:58:05;;;;;;;40.10;18.67;;;;;;;-2.55;100.00;103125.66;5104743;28;20103;-64
2021/04/13 05:00:31;;;;;;;36.80;18.15;;;;;;;-2.57;100.00;103135.88;5101384;28;20486;-64
2021/04/13 05:02:56;;;;;;;41.75;18.90;;;;;;;-2.58;100.00;103126.28;5106146;28;20073;-64
2021/04/13 05:05:21;;;;;;;40.45;19.40;;;;;;;-2.57;100.00;103122.94;5104674;28;20028;-64
2021/04/13 05:07:46;;;;;;;36.17;18.38;;;;;;;-2.55;100.00;103133.44;5103697;28;20024;-64
2021/04/13 05:10:12;;;;;;;36.35;18.92;;;;;;;-2.55;100.00;103120.47;5107137;28;20028;-64
2021/04/13 05:12:38;;;;;;;40.72;20.60;;;;;;;-2.53;100.00;103132.81;5102324;28;20020;-63
2021/04/13 05:15:03;;;;;;;39.28;19.88;;;;;;;-2.50;100.00;103133.09;5102777;28;20027;-64
2021/04/13 05:17:29;;;;;;;41.20;20.38;;;;;;;-2.47;100.00;103140.25;5103801;28;20107;-64
2021/04/13 05:19:54;;;;;;;39.10;19.88;;;;;;;-2.44;100.00;103143.13;5103481;28;20040;-64
2021/04/13 05:22:19;;;;;;;41.45;19.77;;;;;;;-2.38;100.00;103140.22;5103258;28;20442;-64
2021/04/13 05:24:45;;;;;;;39.55;20.10;;;;;;;-2.36;100.00;103141.25;5103627;28;20037;-67
2021/04/13 05:27:10;;;;;;;39.28;20.77;;;;;;;-2.29;100.00;103147.16;5099012;28;20035;-65
2021/04/13 05:29:35;;;;;;;41.40;20.88;;;;;;;-2.22;100.00;103148.63;5101770;28;20019;-65
2021/04/13 05:32:01;;;;;;;39.55;20.30;;;;;;;-2.15;100.00;103156.22;5100131;28;20024;-64
2021/04/13 05:34:27;;;;;;;40.97;20.08;;;;;;;-2.10;100.00;103154.03;5106955;28;20019;-65
2021/04/13 05:36:54;;;;;;;40.30;20.52;;;;;;;-2.02;100.00;103155.66;5100364;28;20482;-65
2021/04/13 05:39:20;;;;;;;41.60;20.52;;;;;;;-1.97;100.00;103159.56;5103442;28;20054;-64
2021/04/13 05:41:46;;;;;;;39.35;20.63;;;;;;;-1.90;100.00;103158.47;5100916;28;20028;-65
2021/04/13 05:44:12;;;;;;;41.13;20.58;;;;;;;-1.81;100.00;103164.50;5100188;28;20020;-63
2021/04/13 05:46:38;;;;;;;41.65;20.33;;;;;;;-1.72;100.00;103166.13;5102617;28;20031;-65
2021/04/13 05:49:04;;;;;;;41.17;21.42;;;;;;;-1.64;100.00;103168.63;5100791;28;20023;-63
2021/04/13 05:51:29;;;;;;;41.70;21.30;;;;;;;-1.54;100.00;103172.06;5099773;28;20573;-65
2021/04/13 05:53:55;;;;;;;39.35;20.95;;;;;;;-1.45;100.00;103175.50;5098347;28;20024;-64
2021/04/13 05:56:26;;;;;;;43.10;21.77;;;;;;;-1.36;100.00;103181.50;5101780;28;20038;-64
2021/04/13 05:58:52;;;;;;;38.80;20.75;;;;;;;-1.26;100.00;103180.66;5100397;28;20102;-64
2021/04/13 06:01:21;;;;;;;38.85;20.67;;;;;;;-1.18;100.00;103182.28;5099569;28;20052;-65
2021/04/13 06:03:46;;;;;;;42.22;22.95;;;;;;;-1.10;100.00;103182.94;5102457;28;20478;-64
2021/04/13 06:06:20;;;;;;;39.72;23.38;;;;;;;-1.01;100.00;103188.03;5098203;28;20035;-65
2021/04/13 06:08:46;;;;;;;42.47;22.75;;;;;;;-0.92;100.00;103191.44;5100703;28;20027;-65
2021/04/13 06:11:26;;;;;;;40.85;23.63;;;;;;;-0.83;100.00;103192.28;5098041;28;20028;-65
2021/04/13 06:13:54;;;;;;;40.22;23.50;;;;;;;-0.74;100.00;103198.28;5096471;28;20028;-65
2021/04/13 06:16:21;;;;;;;42.70;23.13;;;;;;;-0.65;100.00;103197.25;5095248;28;20367;-66
2021/04/13 06:18:46;;;;;;;41.97;24.10;;;;;;;-0.58;100.00;103194.44;5098748;28;20024;-66
2021/04/13 06:21:12;;;;;;;44.10;23.83;;;;;;;-0.50;100.00;103200.28;5097130;28;20081;-65
2021/04/13 06:23:37;;;;;;;40.35;23.90;;;;;;;-0.43;100.00;103205.25;5095382;28;20020;-66
2021/04/13 06:26:02;;;;;;;42.63;24.42;;;;;;;-0.33;100.00;103201.75;5094157;28;20032;-65
2021/04/13 06:28:28;;;;;;;41.72;24.33;;;;;;;-0.26;100.00;103218.00;5098530;28;20024;-66
2021/04/13 06:30:54;;;;;;;41.20;23.38;;;;;;;-0.16;100.00;103217.13;5093051;28;20059;-65
2021/04/13 06:33:20;;;;;;;40.65;22.45;;;;;;;-0.05;99.15;103220.63;5095435;28;20019;-65
2021/04/13 06:35:46;;;;;;;40.17;21.17;;;;;;;0.06;98.64;103221.53;5096456;28;20427;-66
2021/04/13 06:38:18;;;;;;;38.58;20.95;;;;;;;0.17;98.35;103223.34;5096397;28;20024;-65
2021/04/13 06:40:55;;;;;;;40.10;21.65;;;;;;;0.29;96.73;103234.81;5094740;28;20536;-66
2021/04/13 06:43:58;;;;;;;36.55;17.58;;;;;;;0.46;94.43;103230.09;5098570;28;20188;-66
2021/04/13 06:46:29;;;;;;;35.65;17.92;;;;;;;0.52;92.46;103233.22;5097661;28;20036;-65
2021/04/13 06:49:29;;;;;;;33.92;17.33;;;;;;;0.66;91.08;103239.59;5098845;28;20072;-65
2021/04/13 06:52:29;;;;;;;34.40;17.17;;;;;;;0.73;91.20;103241.91;5099878;28;20084;-66
2021/04/13 06:55:30;;;;;;;36.08;16.77;;;;;;;0.82;91.26;103239.16;5099255;28;20040;-66
2021/04/13 06:58:17;;;;;;;34.47;16.27;;;;;;;0.94;89.93;103245.34;5050724;28;20065;-66
2021/04/13 07:00:48;;;;;;;31.95;15.00;;;;;;;1.08;89.15;103242.97;5049924;28;20119;-67
2021/04/13 07:03:31;;;;;;;34.90;16.13;;;;;;;1.17;89.39;103242.00;5050449;28;20025;-66
2021/04/13 07:06:27;;;;;;;34.08;16.15;;;;;;;1.30;89.27;103249.13;5051526;28;20107;-66
2021/04/13 07:09:11;;;;;;;33.03;15.55;;;;;;;1.47;89.90;103247.88;5050070;28;20041;-65
2021/04/13 07:11:48;;;;;;;32.95;15.20;;;;;;;1.63;89.08;103251.69;5045213;28;20037;-65
2021/04/13 07:14:22;;;;;;;32.10;14.75;;;;;;;1.73;87.58;103249.97;5050985;28;20074;-66
2021/04/13 07:16:56;;;;;;;28.77;12.73;;;;;;;1.88;85.39;103252.84;5049009;28;20124;-65
2021/04/13 07:19:33;;;;;;;30.08;13.88;;;;;;;2.03;84.53;103258.34;5051283;28;20047;-65
2021/04/13 07:22:12;;;;;;;29.00;12.45;;;;;;;2.16;83.84;103256.69;5049128;28;20029;-65
2021/04/13 07:24:52;;;;;;;28.05;11.27;;;;;;;2.28;82.67;103257.63;5049870;28;20039;-65
2021/04/13 07:27:25;;;;;;;26.25;10.80;;;;;;;2.39;81.84;103251.53;5050091;28;20045;-65
2021/04/13 07:29:59;;;;;;;27.60;11.68;;;;;;;2.51;81.50;103251.56;5049753;28;20167;-65
2021/04/13 07:32:25;;;;;;;28.17;11.30;;;;;;;2.68;80.23;103249.28;5052281;28;20172;-65
2021/04/13 07:34:56;;;;;;;25.90;10.27;;;;;;;2.79;80.13;103249.28;5100796;28;20193;-64
2021/04/13 07:37:38;;;;;;;27.27;10.27;;;;;;;2.92;79.49;103250.22;5100590;28;20032;-64
2021/04/13 07:40:29;;;;;;;27.42;9.45;;;;;;;3.03;76.51;103246.69;5096978;28;20048;-64
2021/04/13 07:42:57;;;;;;;26.80;9.73;;;;;;;3.21;77.02;103254.06;5096538;28;20157;-66
2021/04/13 07:45:42;;;;;;;26.27;7.00;;;;;;;3.33;77.03;103254.94;5099556;28;20466;-66
2021/04/13 07:48:13;;;;;;;21.92;6.82;;;;;;;3.46;72.29;103252.41;5096440;28;20478;-66
2021/04/13 07:50:42;;;;;;;24.45;7.10;;;;;;;3.59;74.37;103258.53;5097877;28;20047;-67
2021/04/13 07:53:27;;;;;;;24.23;6.63;;;;;;;3.74;73.19;103254.41;5096953;28;20076;-66
2021/04/13 07:56:15;;;;;;;23.60;5.25;;;;;;;3.95;71.73;103252.38;5101494;28;20466;-66
2021/04/13 07:58:56;;;;;;;22.08;4.70;;;;;;;4.35;70.35;103251.59;5097802;28;20028;-66
2021/04/13 08:01:22;;;;;;;18.52;5.03;;;;;;;4.80;68.83;103252.88;5093170;28;20076;-67
2021/04/13 08:03:47;;;;;;;22.40;5.00;;;;;;;5.42;66.51;103251.63;5096765;28;20028;-67
2021/04/13 08:06:28;;;;;;;21.35;4.88;;;;;;;6.02;65.70;103252.78;5102966;28;20466;-66
2021/04/13 08:09:11;;;;;;;20.77;4.53;;;;;;;6.39;64.02;103255.03;5094814;28;20035;-65
2021/04/13 08:11:36;;;;;;;18.20;4.07;;;;;;;6.62;60.08;103248.47;5099645;28;20077;-66
2021/04/13 08:14:20;;;;;;;16.52;2.92;;;;;;;7.00;62.71;103250.63;5098138;28;20023;-66
2021/04/13 08:16:45;;;;;;;15.18;3.50;;;;;;;7.23;57.46;103255.47;5100972;28;20055;-65
2021/04/13 08:19:13;;;;;;;17.98;4.00;;;;;;;7.39;57.55;103256.34;5103568;27;20059;-66
2021/04/13 08:21:39;;;;;;;19.42;3.95;;;;;;;7.84;56.09;103257.06;5097902;28;20122;-65
2021/04/13 08:24:05;;;;;;;19.52;3.65;;;;;;;7.95;53.69;103250.63;5101826;28;20099;-63
2021/04/13 08:26:30;;;;;;;20.25;3.53;;;;;;;7.64;54.10;103262.13;5103561;28;20053;-63
2021/04/13 08:29:02;;;;;;;16.25;3.83;;;;;;;7.54;56.02;103262.44;5104236;28;20016;-63
2021/04/13 08:34:42;;;;;;;18.60;3.67;;;;;;;8.27;54.91;103254.06;5098425;28;20101;-64
2021/04/13 08:37:30;;;;;;;19.35;3.90;;;;;;;8.86;54.21;103257.06;5099359;28;20027;-65
2021/04/13 08:40:22;;;;;;;15.13;3.45;;;;;;;8.70;50.14;103255.38;5098196;28;20059;-64
2021/04/13 08:42:57;;;;;;;17.95;3.40;;;;;;;9.14;51.90;103264.59;5098941;28;20122;-63
2021/04/13 08:45:40;;;;;;;17.00;2.85;;;;;;;10.26;50.72;103260.06;5101228;28;20398;-64
2021/04/13 08:48:11;;;;;;;;;;;;;;;10.23;50.72;103257.28;5094563;28;20032;-65
2021/04/13 08:50:43;;;;;;;15.95;2.92;;;;;;;9.28;48.65;103261.75;5096576;28;20282;-64
2021/04/13 08:53:31;;;;;;;12.85;2.72;;;;;;;9.12;51.52;103265.38;5097357;28;20450;-64
2021/04/13 08:56:06;;;;;;;16.15;2.80;;;;;;;10.30;49.14;103259.38;5095899;28;20020;-64
2021/04/13 08:58:44;;;;;;;12.15;2.67;;;;;;;11.49;46.51;103259.91;5100116;28;20028;-64
2021/04/13 09:01:25;;;;;;;14.05;2.72;;;;;;;11.89;45.01;103264.91;5097184;28;20024;-64
2021/04/13 09:03:51;;;;;;;11.80;2.40;;;;;;;12.13;41.66;103257.91;5095982;28;20024;-64
2021/04/13 09:06:31;;;;;;;16.92;2.80;;;;;;;11.71;44.16;103263.38;5097234;28;20028;-65
2021/04/13 09:09:06;;;;;;;14.15;2.97;;;;;;;11.78;41.79;103257.47;5097322;28;20036;-65
2021/04/13 09:11:52;;;;;;;13.55;2.50;;;;;;;12.70;42.93;103258.97;5095007;28;20040;-65
2021/04/13 09:14:53;;;;;;;15.30;2.90;;;;;;;13.51;40.19;103263.34;5096519;28;20024;-65
2021/04/13 09:17:21;;;;;;;16.35;2.78;;;;;;;14.29;36.54;103255.84;5090949;28;20048;-64
2021/04/13 09:20:10;;;;;;;14.32;2.65;;;;;;;14.86;37.16;103254.69;5093886;28;20050;-65
2021/04/13 09:22:46;;;;;;;10.77;2.42;;;;;;;14.92;35.73;103256.59;5090850;28;20530;-65
2021/04/13 09:25:34;;;;;;;16.05;2.70;;;;;;;13.60;39.20;103252.09;5090646;28;20452;-64
2021/04/13 09:28:05;;;;;;;12.27;2.45;;;;;;;12.78;40.81;103257.47;5089829;28;20028;-65
2021/04/13 09:30:35;;;;;;;14.43;2.40;;;;;;;12.09;39.61;103252.44;5091609;28;20043;-66
2021/04/13 09:33:12;;;;;;;13.80;2.60;;;;;;;11.26;41.48;103266.03;5090021;28;20114;-65
2021/04/13 09:35:40;;;;;;;16.27;2.70;;;;;;;11.15;41.67;103261.22;5075694;28;20024;-64
2021/04/13 09:38:27;;;;;;;16.15;2.63;;;;;;;11.50;40.33;103256.41;5093084;28;20027;-65
2021/04/13 09:41:17;;;;;;;12.45;2.70;;;;;;;10.78;40.89;103251.75;5092258;28;20055;-64
2021/04/13 09:43:57;;;;;;;14.75;3.00;;;;;;;10.76;40.48;103252.53;5093178;28;20047;-64
2021/04/13 09:46:58;;;;;;;12.15;2.80;;;;;;;12.18;39.30;103244.78;5094264;28;20842;-64
2021/04/13 09:50:17;;;;;;;14.40;2.75;;;;;;;14.13;36.09;103244.78;5095596;28;20036;-65
2021/04/13 09:53:28;;;;;;;14.23;2.83;;;;;;;13.81;35.89;103241.22;5048670;28;20484;-65
2021/04/13 09:56:13;;;;;;;9.18;2.40;;;;;;;11.99;38.04;103235.28;5063044;28;20040;-64
2021/04/13 09:58:46;;;;;;;13.73;2.60;;;;;;;10.92;40.22;103246.13;5064800;28;20498;-65
2021/04/13 10:01:40;;;;;;;13.00;2.65;;;;;;;11.13;41.32;103252.28;5045129;28;20039;-64
2021/04/13 10:04:05;;;;;;;9.90;2.50;;;;;;;11.29;40.08;103250.28;5054049;28;20029;-64
2021/04/13 10:06:37;;;;;;;12.40;2.22;;;;;;;12.22;37.24;103236.13;5061436;28;20124;-65
2021/04/13 10:09:07;;;;;;;11.05;2.30;;;;;;;14.42;34.02;103243.78;5052877;28;20029;-64
2021/04/13 10:12:04;;;;;;;14.20;2.42;;;;;;;16.66;32.71;103238.91;5059323;28;20020;-65
2021/04/13 10:14:44;;;;;;;12.82;2.10;;;;;;;18.04;29.64;103233.75;5034237;28;20120;-65
2021/04/13 10:17:41;;;;;;;10.30;2.20;;;;;;;19.18;28.54;103233.84;5031937;28;20075;-64
2021/04/13 10:20:26;;;;;;;8.25;2.00;;;;;;;18.61;26.01;103230.69;5032779;28;20096;-65
2021/04/13 10:23:06;;;;;;;4.50;1.90;;;;;;;17.43;27.89;103232.06;5033445;28;20064;-64
2021/04/13 10:25:37;;;;;;;11.10;2.00;;;;;;;16.22;29.00;103230.97;5034961;28;20135;-64
2021/04/13 10:28:47;;;;;;;10.57;2.05;;;;;;;16.87;30.12;103230.34;5071191;28;20036;-64
2021/04/13 10:31:49;;;;;;;10.68;2.30;;;;;;;19.10;27.51;103224.84;4970296;28;20054;-63
2021/04/13 10:35:07;;;;;;;10.60;2.10;;;;;;;19.62;24.30;103214.38;4972404;28;20121;-63
2021/04/13 10:38:21;;;;;;;8.98;2.03;;;;;;;20.08;23.85;103218.13;4972382;28;20089;-64
2021/04/13 10:41:05;;;;;;;7.70;2.10;;;;;;;21.20;22.52;103204.69;4971002;28;20058;-64
2021/04/13 10:43:46;;;;;;;11.85;2.30;;;;;;;21.29;21.27;103202.84;4973305;28;20034;-64
2021/04/13 10:46:36;;;;;;;9.90;2.22;;;;;;;21.81;23.04;103215.22;4972432;28;20043;-64
2021/04/13 10:49:34;;;;;;;13.32;2.42;;;;;;;21.62;21.79;103199.16;4959442;28;20054;-65
2021/04/13 10:52:23;;;;;;;6.45;2.10;;;;;;;17.20;27.10;103199.69;4984435;28;20042;-65
2021/04/13 10:55:19;;;;;;;8.95;2.22;;;;;;;15.41;28.96;103206.25;4993794;28;20046;-66
2021/04/13 10:57:47;;;;;;;9.32;2.47;;;;;;;15.22;27.65;103208.50;4992246;28;20682;-65
2021/04/13 11:00:18;;;;;;;12.88;2.50;;;;;;;15.54;27.77;103200.28;4991543;28;20038;-64
2021/04/13 11:03:11;;;;;;;12.55;2.60;;;;;;;18.51;26.57;103202.03;4991040;28;20030;-65
2021/04/13 11:05:39;;;;;;;;;;;;;;;20.69;23.38;103196.72;4992895;28;20058;-63
2021/04/13 11:08:29;;;;;;;9.35;2.40;;;;;;;21.52;20.61;103190.25;5057503;28;19911;-65
2021/04/13 11:11:40;;;;;;;10.02;2.50;;;;;;;22.67;20.38;103197.56;5101082;28;20031;-65
2021/04/13 11:14:38;;;;;;;8.32;2.40;;;;;;;23.78;18.40;103177.38;5092186;28;20356;-65
2021/04/13 11:17:38;;;;;;;9.02;2.20;;;;;;;23.90;18.84;103188.03;5096152;28;20042;-66
2021/04/13 11:20:24;;;;;;;8.88;2.30;;;;;;;22.41;20.48;103182.50;5094533;28;20047;-67
2021/04/13 11:23:01;;;;;;;11.15;2.35;;;;;;;22.40;19.50;103183.44;5094285;28;20032;-66
2021/04/13 11:25:45;;;;;;;12.15;2.50;;;;;;;22.11;20.40;103173.75;5103619;28;20085;-67
2021/04/13 11:28:34;;;;;;;10.45;2.40;;;;;;;22.19;20.75;103173.69;5095719;28;20055;-66
2021/04/13 11:31:24;;;;;;;11.18;2.70;;;;;;;19.87;21.69;103171.56;5096785;28;20089;-66
2021/04/13 11:33:49;;;;;;;9.70;2.40;;;;;;;20.97;19.57;103171.56;5098523;28;20370;-66
2021/04/13 11:36:15;;;;;;;9.38;2.30;;;;;;;22.58;17.56;103174.28;5105483;28;20027;-66
2021/04/13 11:39:02;;;;;;;9.32;2.30;;;;;;;24.61;18.56;103165.28;5098830;28;20032;-66
2021/04/13 11:41:45;;;;;;;10.95;2.40;;;;;;;25.21;16.99;103160.50;5102788;28;20050;-66
2021/04/13 11:44:30;;;;;;;11.52;2.50;;;;;;;23.96;17.71;103169.03;5101202;28;20410;-66
2021/04/13 11:47:08;;;;;;;10.85;2.40;;;;;;;25.08;17.07;103165.28;5102032;28;20051;-66
2021/04/13 11:49:42;;;;;;;8.18;2.40;;;;;;;24.36;16.36;103160.28;5103748;28;20024;-66
2021/04/13 11:52:24;;;;;;;9.88;2.65;;;;;;;22.63;18.30;103169.75;5097006;28;20020;-65
2021/04/13 11:54:54;;;;;;;12.88;2.50;;;;;;;19.65;20.46;103159.84;5102715;28;20378;-66